createdAt,value
2022-08-14T00:00:18.794Z,5.75
2022-08-14T00:02:46.329Z,8.50
2022-08-14T00:05:16.874Z,6.30
2022-08-14T00:07:43.653Z,7.53
2022-08-14T00:10:52.165Z,6.85
2022-08-14T00:13:06.881Z,5.85
2022-08-14T00:15:37.686Z,6.38
2022-08-14T00:18:14.514Z,7.82
2022-08-14T00:20:57.559Z,5.90
2022-08-14T00:23:23.902Z,6.43
2022-08-14T00:25:58.756Z,7.30
2022-08-14T00:28:35.377Z,6.78
2022-08-14T00:31:02.239Z,7.30
2022-08-14T00:33:39.271Z,7.25
2022-08-14T00:36:37.054Z,7.93
2022-08-14T00:39:01.763Z,7.22
2022-08-14T00:41:31.919Z,7.80
2022-08-14T00:43:59.838Z,9.48
2022-08-14T00:46:32.546Z,8.25
2022-08-14T00:48:59.945Z,6.55
2022-08-14T00:51:37.830Z,6.85
2022-08-14T00:54:05.393Z,7.43
2022-08-14T00:56:44.296Z,6.15
2022-08-14T00:59:11.510Z,7.38
2022-08-14T01:01:42.603Z,7.57
2022-08-14T01:04:09.194Z,7.50
2022-08-14T01:10:51.080Z,7.18
2022-08-14T01:13:19.823Z,8.13
2022-08-14T01:15:57.526Z,7.55
2022-08-14T01:18:57.742Z,7.65
2022-08-14T01:21:38.795Z,6.00
2022-08-14T01:26:43.133Z,7.38
2022-08-14T01:29:58.145Z,8.18
2022-08-14T01:32:05.676Z,8.05
2022-08-14T01:35:19.760Z,9.15
2022-08-14T01:37:25.593Z,7.72
2022-08-14T01:39:54.413Z,8.15
2022-08-14T01:42:31.216Z,8.77
2022-08-14T01:44:58.831Z,7.85
2022-08-14T01:47:25.440Z,8.45
2022-08-14T01:49:59.643Z,8.32
2022-08-14T01:52:34.628Z,8.70
2022-08-14T01:55:14.650Z,9.88
2022-08-14T01:58:00.220Z,7.47
2022-08-14T02:00:30.109Z,8.82
2022-08-14T02:03:02.584Z,9.15
2022-08-14T02:05:35.531Z,10.02
2022-08-14T02:08:09.749Z,10.02
2022-08-14T02:10:45.993Z,10.93
2022-08-14T02:13:13.988Z,9.35
2022-08-14T02:15:43.510Z,8.75
2022-08-14T02:18:10.328Z,10.52
2022-08-14T02:20:39.993Z,10.90
2022-08-14T02:23:08.346Z,9.52
2022-08-14T02:25:35.552Z,8.45
2022-08-14T02:28:22.973Z,8.85
2022-08-14T02:30:48.692Z,8.60
2022-08-14T02:33:19.210Z,10.32
2022-08-14T02:35:46.728Z,10.48
2022-08-14T02:38:29.705Z,9.85
2022-08-14T02:40:58.141Z,9.05
2022-08-14T02:43:24.616Z,11.00
2022-08-14T02:46:03.342Z,9.57
2022-08-14T02:49:04.320Z,10.25
2022-08-14T02:51:18.559Z,11.40
2022-08-14T02:53:45.857Z,9.75
2022-08-14T02:57:14.021Z,9.77
2022-08-14T02:59:05.614Z,9.32
2022-08-14T03:01:50.660Z,10.82
2022-08-14T03:04:20.277Z,10.02
2022-08-14T03:07:06.687Z,10.57
2022-08-14T03:09:42.080Z,9.43
2022-08-14T03:12:31.741Z,9.70
2022-08-14T03:15:13.758Z,10.30
2022-08-14T03:17:56.178Z,11.25
2022-08-14T03:20:24.731Z,10.88
2022-08-14T03:22:52.449Z,9.65
2022-08-14T03:25:19.610Z,11.15
2022-08-14T03:27:48.401Z,11.50
2022-08-14T03:30:39.159Z,11.60
2022-08-14T03:33:08.180Z,10.68
2022-08-14T03:35:39.952Z,10.57
2022-08-14T03:39:10.047Z,11.93
2022-08-14T03:41:11.008Z,11.55
2022-08-14T03:43:38.237Z,10.77
2022-08-14T03:46:10.143Z,11.13
2022-08-14T03:48:54.390Z,10.90
2022-08-14T03:51:21.621Z,11.13
2022-08-14T03:53:49.231Z,10.18
2022-08-14T03:56:21.285Z,9.68
2022-08-14T03:58:49.038Z,10.65
2022-08-14T04:01:17.755Z,9.07
2022-08-14T04:03:44.250Z,10.35
2022-08-14T04:06:11.183Z,9.15
2022-08-14T04:08:49.679Z,8.35
2022-08-14T04:11:17.341Z,10.77
2022-08-14T04:13:44.766Z,10.75
2022-08-14T04:16:13.107Z,8.93
2022-08-14T04:18:44.480Z,9.05
2022-08-14T04:21:11.902Z,9.20
2022-08-14T04:23:39.756Z,8.38
2022-08-14T04:26:14.416Z,10.50
2022-08-14T04:29:07.269Z,9.85
2022-08-14T04:32:57.722Z,9.73
2022-08-14T04:34:20.836Z,11.32
2022-08-14T04:37:12.366Z,10.55
2022-08-14T04:42:51.207Z,10.43
2022-08-14T04:45:19.749Z,9.13
2022-08-14T04:48:05.548Z,8.50
2022-08-14T04:50:43.501Z,8.57
2022-08-14T04:53:12.946Z,9.43
2022-08-14T04:55:49.932Z,7.90
2022-08-14T04:58:33.006Z,7.93
2022-08-14T05:01:01.432Z,7.72
2022-08-14T05:03:29.463Z,8.98
2022-08-14T05:06:00.562Z,8.50
2022-08-14T05:08:31.703Z,8.07
2022-08-14T05:11:11.932Z,8.60
2022-08-14T05:13:59.552Z,9.13
2022-08-14T05:16:29.441Z,7.90
2022-08-14T05:19:24.994Z,9.02
2022-08-14T05:22:00.286Z,8.48
2022-08-14T05:24:28.237Z,8.20
2022-08-14T05:26:54.767Z,8.50
2022-08-14T05:29:21.779Z,8.63
2022-08-14T05:31:48.799Z,8.73
2022-08-14T05:34:17.250Z,9.15
2022-08-14T05:36:58.756Z,8.45
2022-08-14T05:39:29.488Z,8.85
2022-08-14T05:41:56.736Z,9.40
2022-08-14T05:44:29.197Z,9.43
2022-08-14T05:46:56.489Z,10.13
2022-08-14T05:49:23.075Z,10.57
2022-08-14T05:51:52.635Z,11.30
2022-08-14T05:54:26.938Z,12.35
2022-08-14T05:56:55.239Z,14.52
2022-08-14T05:59:30.094Z,12.25
2022-08-14T06:02:05.818Z,13.80
2022-08-14T06:04:32.496Z,14.45
2022-08-14T06:06:59.169Z,11.18
2022-08-14T06:09:25.525Z,12.60
2022-08-14T06:11:52.103Z,10.85
2022-08-14T06:14:21.563Z,12.65
2022-08-14T06:16:51.987Z,10.65
2022-08-14T06:19:19.965Z,11.30
2022-08-14T06:21:46.359Z,12.70
2022-08-14T06:24:18.888Z,12.98
2022-08-14T06:26:51.943Z,13.57
2022-08-14T06:29:21.494Z,12.00
2022-08-14T06:31:47.791Z,13.23
2022-08-14T06:35:04.466Z,12.23
2022-08-14T06:37:12.808Z,10.77
2022-08-14T06:39:44.199Z,12.00
2022-08-14T06:42:32.287Z,11.20
2022-08-14T06:44:58.326Z,10.32
2022-08-14T06:47:24.852Z,12.88
2022-08-14T06:49:57.810Z,13.68
2022-08-14T06:52:24.711Z,12.85
2022-08-14T06:54:51.248Z,12.68
2022-08-14T06:57:18.252Z,10.45
2022-08-14T06:59:44.574Z,11.00
2022-08-14T07:02:29.607Z,11.15
2022-08-14T07:05:21.000Z,9.95
2022-08-14T07:07:51.162Z,10.95
2022-08-14T07:10:17.507Z,10.27
2022-08-14T07:13:01.215Z,10.18
2022-08-14T07:15:29.747Z,10.82
2022-08-14T07:17:59.799Z,9.52
2022-08-14T07:20:31.291Z,10.57
2022-08-14T07:23:07.319Z,9.98
2022-08-14T07:25:34.569Z,10.52
2022-08-14T07:28:10.151Z,8.90
2022-08-14T07:30:42.026Z,9.45
2022-08-14T07:33:17.684Z,9.35
2022-08-14T07:35:57.564Z,9.32
2022-08-14T07:38:24.432Z,9.00
2022-08-14T07:40:53.074Z,8.50
2022-08-14T07:43:19.812Z,8.43
2022-08-14T07:45:47.703Z,10.35
2022-08-14T07:48:17.442Z,9.90
2022-08-14T07:50:46.161Z,9.57
2022-08-14T07:53:14.448Z,9.93
2022-08-14T07:55:41.702Z,9.02
2022-08-14T07:58:21.275Z,10.38
2022-08-14T08:00:57.439Z,7.93
2022-08-14T08:03:28.137Z,9.27
2022-08-14T08:05:56.891Z,9.63
2022-08-14T08:08:27.048Z,9.15
2022-08-14T08:11:02.588Z,8.30
2022-08-14T08:13:32.731Z,8.00
2022-08-14T08:16:00.431Z,8.93
2022-08-14T08:18:29.325Z,8.65
2022-08-14T08:20:59.233Z,10.57
2022-08-14T08:23:30.969Z,8.25
2022-08-14T08:26:07.435Z,8.57
2022-08-14T08:28:34.314Z,9.38
2022-08-14T08:31:02.451Z,9.40
2022-08-14T08:33:31.876Z,8.20
2022-08-14T08:36:05.990Z,8.45
2022-08-14T08:39:17.704Z,10.80
2022-08-14T08:41:21.012Z,8.20
2022-08-14T08:43:47.900Z,10.73
2022-08-14T08:46:23.875Z,9.65
2022-08-14T08:51:22.570Z,9.65
2022-08-14T08:54:02.606Z,9.38
2022-08-14T08:56:39.661Z,8.30
2022-08-14T08:59:35.959Z,8.88
2022-08-14T09:02:10.556Z,7.85
2022-08-14T09:04:53.710Z,8.23
2022-08-14T09:07:25.858Z,8.35
2022-08-14T09:09:59.108Z,8.73
2022-08-14T09:12:26.990Z,7.70
2022-08-14T09:14:56.507Z,6.75
2022-08-14T09:17:25.721Z,7.10
2022-08-14T09:19:53.137Z,7.43
2022-08-14T09:22:34.827Z,6.15
2022-08-14T09:25:03.889Z,6.45
2022-08-14T09:27:33.997Z,6.10
2022-08-14T09:30:30.697Z,6.13
2022-08-14T09:33:08.976Z,6.95
2022-08-14T09:35:56.519Z,6.55
2022-08-14T09:38:29.260Z,6.00
2022-08-14T09:40:55.555Z,6.38
2022-08-14T09:43:22.580Z,5.97
2022-08-14T09:45:53.580Z,6.38
2022-08-14T09:48:27.754Z,5.15
2022-08-14T09:50:57.505Z,5.38
2022-08-14T09:54:19.461Z,5.50
2022-08-14T09:56:30.456Z,6.03
2022-08-14T09:58:59.088Z,5.70
2022-08-14T10:01:35.607Z,6.18
2022-08-14T10:04:06.236Z,6.10
2022-08-14T10:06:45.244Z,6.10
2022-08-14T10:09:16.664Z,5.90
2022-08-14T10:11:59.035Z,5.55
2022-08-14T10:14:29.337Z,6.68
2022-08-14T10:17:05.242Z,5.50
2022-08-14T10:19:35.646Z,5.60
2022-08-14T10:23:13.646Z,6.32
2022-08-14T10:24:49.670Z,5.82
2022-08-14T10:27:23.290Z,6.85
2022-08-14T10:29:50.868Z,6.25
2022-08-14T10:32:28.448Z,5.63
2022-08-14T10:35:09.278Z,5.80
2022-08-14T10:37:41.916Z,6.18
2022-08-14T10:40:38.742Z,6.15
2022-08-14T10:42:57.357Z,5.63
2022-08-14T10:45:25.675Z,5.78
2022-08-14T10:48:09.147Z,5.60
2022-08-14T10:50:41.307Z,5.53
2022-08-14T10:53:08.768Z,6.05
2022-08-14T10:55:39.372Z,6.07
2022-08-14T10:58:12.420Z,5.30
2022-08-14T11:00:46.872Z,5.95
2022-08-14T11:03:19.904Z,5.50
2022-08-14T11:05:55.960Z,5.60
2022-08-14T11:08:32.635Z,5.10
2022-08-14T11:11:01.703Z,5.30
2022-08-14T11:13:30.020Z,5.18
2022-08-14T11:16:00.497Z,5.10
2022-08-14T11:18:36.075Z,5.05
2022-08-14T11:21:07.009Z,5.45
2022-08-14T11:23:44.413Z,5.55
2022-08-14T11:26:11.460Z,5.05
2022-08-14T11:28:46.941Z,4.47
2022-08-14T11:31:16.760Z,4.78
2022-08-14T11:33:43.214Z,5.13
2022-08-14T11:36:17.845Z,4.97
2022-08-14T11:38:45.892Z,4.95
2022-08-14T11:41:17.154Z,5.32
2022-08-14T11:43:57.756Z,5.82
2022-08-14T11:46:30.556Z,5.93
2022-08-14T11:49:05.612Z,4.90
2022-08-14T11:51:36.429Z,5.05
2022-08-14T11:54:19.926Z,4.97
2022-08-14T11:56:50.717Z,4.68
2022-08-14T11:59:18.076Z,5.30
2022-08-14T12:01:46.318Z,4.60
2022-08-14T12:04:31.582Z,4.45
2022-08-14T12:07:00.921Z,4.50
2022-08-14T12:09:38.082Z,5.05
2022-08-14T12:12:35.080Z,4.38
2022-08-14T12:15:02.839Z,4.20
2022-08-14T12:17:47.716Z,4.35
2022-08-14T12:20:16.485Z,4.35
2022-08-14T12:22:58.816Z,4.90
2022-08-14T12:25:26.793Z,4.38
2022-08-14T12:27:54.775Z,4.55
2022-08-14T12:30:48.598Z,4.28
2022-08-14T12:33:33.689Z,4.30
2022-08-14T12:36:04.133Z,4.25
2022-08-14T12:38:31.949Z,4.15
2022-08-14T12:40:58.420Z,4.80
2022-08-14T12:43:24.764Z,4.30
2022-08-14T12:45:55.015Z,4.05
2022-08-14T12:48:32.030Z,4.28
2022-08-14T12:50:58.925Z,3.88
2022-08-14T12:53:36.305Z,4.22
2022-08-14T12:56:21.386Z,4.47
2022-08-14T12:58:55.472Z,4.72
2022-08-14T13:01:25.483Z,5.68
2022-08-14T13:04:05.150Z,4.60
2022-08-14T13:06:32.404Z,5.60
2022-08-14T13:09:00.351Z,5.30
2022-08-14T13:11:30.919Z,5.15
2022-08-14T13:13:59.606Z,4.45
2022-08-14T13:16:38.220Z,4.68
2022-08-14T13:19:09.758Z,5.10
2022-08-14T13:21:58.437Z,4.43
2022-08-14T13:24:27.861Z,4.60
2022-08-14T13:27:00.366Z,4.60
2022-08-14T13:29:31.586Z,4.15
2022-08-14T13:31:58.329Z,4.65
2022-08-14T13:34:25.985Z,5.03
2022-08-14T13:36:59.025Z,5.00
2022-08-14T13:39:36.334Z,4.43
2022-08-14T13:42:08.427Z,4.63
2022-08-14T13:44:37.976Z,4.45
2022-08-14T13:47:09.396Z,4.25
2022-08-14T13:49:37.460Z,5.20
2022-08-14T13:52:04.732Z,4.53
2022-08-14T13:54:55.536Z,4.68
2022-08-14T13:57:22.928Z,4.47
2022-08-14T14:00:00.246Z,4.18
2022-08-14T14:02:33.696Z,5.00
2022-08-14T14:05:00.972Z,4.30
2022-08-14T14:07:31.976Z,4.55
2022-08-14T14:10:06.486Z,5.00
2022-08-14T14:12:41.145Z,4.60
2022-08-14T14:15:09.629Z,4.80
2022-08-14T14:17:36.412Z,5.13
2022-08-14T14:20:06.217Z,4.93
2022-08-14T14:23:00.953Z,4.95
2022-08-14T14:25:22.039Z,5.40
2022-08-14T14:27:49.617Z,5.28
2022-08-14T14:30:52.587Z,4.40
2022-08-14T14:33:23.133Z,4.50
2022-08-14T14:35:55.111Z,5.00
2022-08-14T14:38:27.585Z,4.95
2022-08-14T14:41:00.951Z,4.30
2022-08-14T14:43:28.268Z,7.10
2022-08-14T14:45:55.540Z,5.22
2022-08-14T14:48:23.398Z,4.80
2022-08-14T14:50:57.432Z,4.88
2022-08-14T14:53:24.981Z,5.13
2022-08-14T14:56:47.380Z,4.95
2022-08-14T14:58:41.835Z,4.40
2022-08-14T15:01:10.376Z,5.15
2022-08-14T15:03:38.405Z,4.97
2022-08-14T15:06:06.319Z,5.10
2022-08-14T15:08:57.031Z,4.78
2022-08-14T15:11:20.204Z,4.78
2022-08-14T15:13:53.224Z,5.35
2022-08-14T15:16:20.100Z,4.75
2022-08-14T15:18:49.134Z,5.10
2022-08-14T15:21:15.743Z,4.63
2022-08-14T15:23:44.797Z,5.85
2022-08-14T15:26:13.464Z,4.82
2022-08-14T15:29:02.217Z,5.30
2022-08-14T15:31:29.689Z,5.45
2022-08-14T15:34:44.704Z,4.82
2022-08-14T15:36:57.723Z,4.72
2022-08-14T15:39:24.109Z,4.45
2022-08-14T15:41:50.957Z,4.95
2022-08-14T15:44:25.376Z,5.05
2022-08-14T15:46:52.989Z,4.63
2022-08-14T15:49:19.681Z,4.50
2022-08-14T15:51:46.044Z,4.50
2022-08-14T15:54:12.828Z,4.93
2022-08-14T15:56:42.926Z,4.35
2022-08-14T15:59:12.989Z,4.95
2022-08-14T16:01:53.801Z,4.78
2022-08-14T16:04:23.973Z,4.95
2022-08-14T16:06:54.554Z,4.35
2022-08-14T16:09:21.612Z,4.60
2022-08-14T16:11:53.381Z,4.70
2022-08-14T16:14:21.268Z,4.40
2022-08-14T16:16:51.576Z,4.95
2022-08-14T16:19:27.363Z,4.50
2022-08-14T16:22:02.539Z,4.55
2022-08-14T16:24:59.677Z,4.82
2022-08-14T16:27:39.658Z,4.47
2022-08-14T16:30:24.488Z,4.45
2022-08-14T16:32:56.065Z,4.50
2022-08-14T16:35:25.094Z,4.40
2022-08-14T16:37:52.976Z,4.72
2022-08-14T16:43:04.256Z,4.85
2022-08-14T16:45:43.728Z,4.68
2022-08-14T16:48:54.692Z,3.97
2022-08-14T16:50:57.824Z,4.07
2022-08-14T16:53:27.157Z,4.63
2022-08-14T16:56:23.106Z,5.82
2022-08-14T16:58:51.622Z,4.40
2022-08-14T17:01:25.062Z,4.47
2022-08-14T17:04:25.028Z,4.70
2022-08-14T17:06:55.895Z,4.88
2022-08-14T17:09:25.064Z,4.88
2022-08-14T17:12:07.639Z,4.25
2022-08-14T17:14:50.536Z,4.60
2022-08-14T17:17:21.160Z,5.13
2022-08-14T17:19:56.035Z,5.38
2022-08-14T17:22:22.716Z,4.63
2022-08-14T17:25:03.024Z,4.80
2022-08-14T17:27:30.348Z,5.07
2022-08-14T17:29:57.779Z,5.40
2022-08-14T17:32:29.237Z,5.20
2022-08-14T17:35:10.961Z,5.63
2022-08-14T17:37:39.273Z,5.18
2022-08-14T17:40:19.005Z,5.03
2022-08-14T17:42:45.785Z,4.95
2022-08-14T17:45:19.250Z,4.95
2022-08-14T17:47:53.472Z,4.90
2022-08-14T17:50:58.416Z,5.25
2022-08-14T17:53:26.197Z,4.68
2022-08-14T17:56:01.485Z,5.13
2022-08-14T17:58:30.274Z,4.95
2022-08-14T18:01:05.375Z,5.50
2022-08-14T18:03:51.254Z,5.55
2022-08-14T18:06:40.109Z,4.88
2022-08-14T18:09:25.301Z,4.85
2022-08-14T18:11:54.230Z,5.22
2022-08-14T18:14:33.290Z,5.25
2022-08-14T18:17:11.559Z,5.10
2022-08-14T18:19:41.698Z,5.40
2022-08-14T18:22:30.821Z,5.18
2022-08-14T18:24:55.553Z,5.35
2022-08-14T18:27:23.466Z,5.03
2022-08-14T18:29:54.811Z,5.43
2022-08-14T18:32:27.882Z,5.38
2022-08-14T18:35:11.231Z,5.13
2022-08-14T18:40:34.715Z,5.00
2022-08-14T18:43:03.597Z,5.28
2022-08-14T18:45:32.166Z,5.20
2022-08-14T18:48:28.393Z,5.90
2022-08-14T18:51:01.176Z,5.95
2022-08-14T18:53:34.322Z,6.53
2022-08-14T18:56:09.576Z,6.60
2022-08-14T18:58:57.005Z,6.82
2022-08-14T19:01:26.690Z,6.88
2022-08-14T19:03:55.985Z,7.85
2022-08-14T19:06:37.309Z,7.75
2022-08-14T19:09:04.603Z,8.65
2022-08-14T19:11:39.813Z,7.38
2022-08-14T19:14:07.236Z,8.15
2022-08-14T19:16:37.534Z,8.20
2022-08-14T19:19:10.453Z,7.28
2022-08-14T19:21:43.541Z,7.85
2022-08-14T19:24:26.750Z,7.75
2022-08-14T19:27:16.458Z,7.43
2022-08-14T19:29:47.682Z,6.97
2022-08-14T19:32:36.466Z,5.95
2022-08-14T19:35:16.554Z,6.63
2022-08-14T19:37:45.048Z,6.10
2022-08-14T19:40:15.373Z,7.40
2022-08-14T19:42:47.347Z,7.60
2022-08-14T19:45:15.353Z,6.82
2022-08-14T19:47:42.020Z,7.50
2022-08-14T19:50:31.011Z,6.50
2022-08-14T19:53:11.258Z,7.35
2022-08-14T19:55:45.674Z,6.35
2022-08-14T19:58:12.855Z,7.03
2022-08-14T20:00:52.010Z,6.55
2022-08-14T20:03:23.888Z,6.53
2022-08-14T20:06:00.544Z,7.50
2022-08-14T20:09:05.351Z,5.97
2022-08-14T20:11:43.494Z,6.72
2022-08-14T20:14:20.421Z,6.90
2022-08-14T20:16:49.640Z,6.65
2022-08-14T20:19:28.769Z,6.22
2022-08-14T20:22:00.738Z,6.18
2022-08-14T20:24:45.107Z,6.32
2022-08-14T20:27:38.804Z,6.68
2022-08-14T20:30:29.727Z,6.88
2022-08-14T20:32:57.852Z,6.40
2022-08-14T20:35:25.758Z,7.00
2022-08-14T20:38:30.392Z,6.97
2022-08-14T20:40:52.491Z,6.60
2022-08-14T20:43:41.555Z,6.80
2022-08-14T20:46:12.278Z,7.20
2022-08-14T20:48:52.806Z,6.82
2022-08-14T20:51:23.965Z,7.07
2022-08-14T20:54:03.853Z,7.38
2022-08-14T20:56:41.404Z,7.40
2022-08-14T20:59:15.620Z,6.50
2022-08-14T21:01:45.590Z,6.70
2022-08-14T21:04:22.633Z,7.05
2022-08-14T21:07:25.196Z,7.28
2022-08-14T21:09:43.708Z,8.85
2022-08-14T21:12:34.323Z,7.97
2022-08-14T21:15:04.975Z,8.95
2022-08-14T21:17:37.527Z,10.25
2022-08-14T21:20:21.208Z,9.45
2022-08-14T21:22:51.158Z,8.52
2022-08-14T21:25:20.761Z,11.00
2022-08-14T21:27:56.605Z,9.88
2022-08-14T21:30:46.648Z,10.07
2022-08-14T21:33:12.455Z,8.07
2022-08-14T21:35:45.599Z,8.35
2022-08-14T21:38:16.883Z,7.22
2022-08-14T21:40:46.742Z,8.77
2022-08-14T21:43:17.806Z,7.13
2022-08-14T21:45:51.678Z,8.48
2022-08-14T21:48:20.783Z,7.45
2022-08-14T21:51:00.652Z,8.93
2022-08-14T21:53:36.711Z,8.90
2022-08-14T21:56:24.039Z,7.85
2022-08-14T21:59:07.168Z,9.77
2022-08-14T22:02:01.082Z,10.55
2022-08-14T22:04:33.781Z,8.27
2022-08-14T22:07:08.564Z,7.57
2022-08-14T22:09:36.740Z,8.23
2022-08-14T22:12:06.836Z,8.27
2022-08-14T22:14:33.494Z,6.60
2022-08-14T22:17:12.708Z,7.25
2022-08-14T22:19:47.561Z,6.80
2022-08-14T22:22:22.267Z,7.68
2022-08-14T22:24:54.145Z,7.40
2022-08-14T22:27:29.341Z,7.72
2022-08-14T22:29:57.772Z,7.43
2022-08-14T22:32:56.129Z,7.35
2022-08-14T22:35:11.992Z,6.82
2022-08-14T22:37:39.652Z,6.72
2022-08-14T22:40:55.163Z,7.40
2022-08-14T22:43:00.336Z,6.28
2022-08-14T22:45:36.236Z,7.22
2022-08-14T22:48:04.099Z,7.35
2022-08-14T22:50:33.642Z,7.10
2022-08-14T22:53:00.698Z,7.20
2022-08-14T22:55:27.401Z,6.63
2022-08-14T22:57:53.778Z,7.45
2022-08-14T23:00:25.640Z,7.25
2022-08-14T23:02:58.251Z,7.00
2022-08-14T23:05:40.139Z,7.45
2022-08-14T23:08:59.940Z,8.25
2022-08-14T23:11:03.080Z,8.55
2022-08-14T23:13:30.733Z,6.95
2022-08-14T23:15:58.023Z,7.93
2022-08-14T23:18:29.730Z,8.35
2022-08-14T23:20:56.525Z,7.05
2022-08-14T23:23:23.356Z,10.52
2022-08-14T23:25:59.957Z,7.22
2022-08-14T23:28:34.445Z,7.95
2022-08-14T23:31:34.661Z,7.28
2022-08-14T23:36:36.911Z,9.82
2022-08-14T23:39:10.203Z,10.55
2022-08-14T23:41:46.452Z,9.50
2022-08-14T23:44:21.502Z,10.68
2022-08-14T23:46:49.336Z,9.93
2022-08-14T23:49:20.421Z,8.57
2022-08-14T23:51:48.508Z,8.20
2022-08-14T23:54:48.135Z,9.07
2022-08-14T23:57:12.984Z,8.98
2022-08-14T23:59:45.070Z,9.10
